sensor_id;sensor_type;location;lat;lon;timestamp;P1;durP1;ratioP1;P2;durP2;ratioP2
5167;SDS011;2603;48.918;8.980;2023-05-17T00:00:53;3.47;;;1.70;;
5167;SDS011;2603;48.918;8.980;2023-05-17T00:03:19;3.70;;;1.40;;
5167;SDS011;2603;48.918;8.980;2023-05-17T00:05:46;4.47;;;1.67;;
5167;SDS011;2603;48.918;8.980;2023-05-17T00:08:12;9.20;;;1.83;;
5167;SDS011;2603;48.918;8.980;2023-05-17T00:10:39;5.00;;;2.07;;
5167;SDS011;2603;48.918;8.980;2023-05-17T00:13:07;5.93;;;1.30;;
5167;SDS011;2603;48.918;8.980;2023-05-17T00:15:33;2.13;;;1.50;;
5167;SDS011;2603;48.918;8.980;2023-05-17T00:18:00;19.00;;;2.03;;
5167;SDS011;2603;48.918;8.980;2023-05-17T00:20:26;5.60;;;1.37;;
5167;SDS011;2603;48.918;8.980;2023-05-17T00:22:53;2.63;;;1.40;;
5167;SDS011;2603;48.918;8.980;2023-05-17T00:25:19;4.93;;;1.40;;
5167;SDS011;2603;48.918;8.980;2023-05-17T00:27:46;11.03;;;2.30;;
5167;SDS011;2603;48.918;8.980;2023-05-17T00:30:14;4.33;;;1.40;;
5167;SDS011;2603;48.918;8.980;2023-05-17T00:32:40;2.53;;;1.40;;
5167;SDS011;2603;48.918;8.980;2023-05-17T00:35:08;3.30;;;1.50;;
5167;SDS011;2603;48.918;8.980;2023-05-17T00:37:35;4.97;;;1.37;;
5167;SDS011;2603;48.918;8.980;2023-05-17T00:40:02;3.83;;;1.60;;
5167;SDS011;2603;48.918;8.980;2023-05-17T00:42:30;7.17;;;1.90;;
5167;SDS011;2603;48.918;8.980;2023-05-17T00:44:57;1.93;;;1.03;;
5167;SDS011;2603;48.918;8.980;2023-05-17T00:47:25;5.87;;;1.90;;
5167;SDS011;2603;48.918;8.980;2023-05-17T00:49:51;4.13;;;1.23;;
5167;SDS011;2603;48.918;8.980;2023-05-17T00:52:18;4.17;;;1.37;;
5167;SDS011;2603;48.918;8.980;2023-05-17T00:54:44;5.10;;;1.57;;
5167;SDS011;2603;48.918;8.980;2023-05-17T00:57:11;2.97;;;1.63;;
5167;SDS011;2603;48.918;8.980;2023-05-17T00:59:38;6.50;;;1.40;;
5167;SDS011;2603;48.918;8.980;2023-05-17T01:02:04;5.70;;;1.80;;
5167;SDS011;2603;48.918;8.980;2023-05-17T01:04:33;3.47;;;1.50;;
5167;SDS011;2603;48.918;8.980;2023-05-17T01:07:00;5.33;;;1.37;;
5167;SDS011;2603;48.918;8.980;2023-05-17T01:09:26;4.17;;;1.77;;
5167;SDS011;2603;48.918;8.980;2023-05-17T01:11:55;4.70;;;1.27;;
5167;SDS011;2603;48.918;8.980;2023-05-17T01:14:27;5.20;;;1.70;;
5167;SDS011;2603;48.918;8.980;2023-05-17T01:17:01;7.63;;;1.60;;
5167;SDS011;2603;48.918;8.980;2023-05-17T01:19:47;5.43;;;1.50;;
5167;SDS011;2603;48.918;8.980;2023-05-17T01:22:19;3.53;;;1.57;;
5167;SDS011;2603;48.918;8.980;2023-05-17T01:24:59;1.50;;;1.10;;
5167;SDS011;2603;48.918;8.980;2023-05-17T01:27:39;5.50;;;1.60;;
5167;SDS011;2603;48.918;8.980;2023-05-17T01:30:08;5.90;;;1.60;;
5167;SDS011;2603;48.918;8.980;2023-05-17T01:32:35;6.10;;;2.37;;
5167;SDS011;2603;48.918;8.980;2023-05-17T01:35:02;2.90;;;1.40;;
5167;SDS011;2603;48.918;8.980;2023-05-17T01:37:29;2.97;;;1.60;;
5167;SDS011;2603;48.918;8.980;2023-05-17T01:39:57;4.20;;;1.67;;
5167;SDS011;2603;48.918;8.980;2023-05-17T01:42:25;6.03;;;2.17;;
5167;SDS011;2603;48.918;8.980;2023-05-17T01:44:58;4.70;;;1.80;;
5167;SDS011;2603;48.918;8.980;2023-05-17T01:47:29;4.47;;;1.73;;
5167;SDS011;2603;48.918;8.980;2023-05-17T01:49:59;6.60;;;1.80;;
5167;SDS011;2603;48.918;8.980;2023-05-17T01:52:27;4.33;;;1.33;;
5167;SDS011;2603;48.918;8.980;2023-05-17T01:54:58;4.70;;;1.57;;
5167;SDS011;2603;48.918;8.980;2023-05-17T01:57:32;10.17;;;1.40;;
5167;SDS011;2603;48.918;8.980;2023-05-17T02:00:04;2.57;;;1.90;;
5167;SDS011;2603;48.918;8.980;2023-05-17T02:02:39;2.93;;;1.83;;
5167;SDS011;2603;48.918;8.980;2023-05-17T02:05:06;4.17;;;1.73;;
5167;SDS011;2603;48.918;8.980;2023-05-17T02:07:33;2.53;;;1.40;;
5167;SDS011;2603;48.918;8.980;2023-05-17T02:10:00;2.27;;;1.50;;
5167;SDS011;2603;48.918;8.980;2023-05-17T02:12:26;4.30;;;1.73;;
5167;SDS011;2603;48.918;8.980;2023-05-17T02:14:54;3.50;;;1.57;;
5167;SDS011;2603;48.918;8.980;2023-05-17T02:17:22;2.60;;;1.50;;
5167;SDS011;2603;48.918;8.980;2023-05-17T02:19:49;7.77;;;1.70;;
5167;SDS011;2603;48.918;8.980;2023-05-17T02:22:15;2.67;;;1.43;;
5167;SDS011;2603;48.918;8.980;2023-05-17T02:24:42;8.10;;;1.80;;
5167;SDS011;2603;48.918;8.980;2023-05-17T02:27:10;5.30;;;1.70;;
5167;SDS011;2603;48.918;8.980;2023-05-17T02:29:36;4.50;;;1.83;;
5167;SDS011;2603;48.918;8.980;2023-05-17T02:32:03;2.70;;;1.80;;
5167;SDS011;2603;48.918;8.980;2023-05-17T02:34:32;7.53;;;1.50;;
5167;SDS011;2603;48.918;8.980;2023-05-17T02:36:59;4.23;;;2.03;;
5167;SDS011;2603;48.918;8.980;2023-05-17T02:39:25;5.03;;;1.70;;
5167;SDS011;2603;48.918;8.980;2023-05-17T02:41:52;5.67;;;1.23;;
5167;SDS011;2603;48.918;8.980;2023-05-17T02:44:18;6.77;;;2.60;;
5167;SDS011;2603;48.918;8.980;2023-05-17T02:46:45;6.97;;;2.17;;
5167;SDS011;2603;48.918;8.980;2023-05-17T02:49:11;3.53;;;1.73;;
5167;SDS011;2603;48.918;8.980;2023-05-17T02:51:40;4.03;;;1.60;;
5167;SDS011;2603;48.918;8.980;2023-05-17T02:54:06;4.43;;;1.90;;
5167;SDS011;2603;48.918;8.980;2023-05-17T02:56:33;5.93;;;1.50;;
5167;SDS011;2603;48.918;8.980;2023-05-17T02:59:00;4.70;;;1.70;;
5167;SDS011;2603;48.918;8.980;2023-05-17T03:01:27;4.40;;;1.53;;
5167;SDS011;2603;48.918;8.980;2023-05-17T03:03:54;2.90;;;1.87;;
5167;SDS011;2603;48.918;8.980;2023-05-17T03:06:21;5.40;;;2.80;;
5167;SDS011;2603;48.918;8.980;2023-05-17T03:08:50;2.43;;;1.40;;
5167;SDS011;2603;48.918;8.980;2023-05-17T03:11:17;6.50;;;1.63;;
5167;SDS011;2603;48.918;8.980;2023-05-17T03:13:44;6.23;;;1.90;;
5167;SDS011;2603;48.918;8.980;2023-05-17T03:16:17;3.60;;;1.60;;
5167;SDS011;2603;48.918;8.980;2023-05-17T03:18:44;5.40;;;1.70;;
5167;SDS011;2603;48.918;8.980;2023-05-17T03:21:11;11.60;;;2.30;;
5167;SDS011;2603;48.918;8.980;2023-05-17T03:23:38;3.77;;;2.17;;
5167;SDS011;2603;48.918;8.980;2023-05-17T03:26:07;5.80;;;1.90;;
5167;SDS011;2603;48.918;8.980;2023-05-17T03:28:40;5.73;;;2.33;;
5167;SDS011;2603;48.918;8.980;2023-05-17T03:31:06;3.10;;;1.80;;
5167;SDS011;2603;48.918;8.980;2023-05-17T03:33:33;5.70;;;2.20;;
5167;SDS011;2603;48.918;8.980;2023-05-17T03:36:00;12.07;;;1.67;;
5167;SDS011;2603;48.918;8.980;2023-05-17T03:38:27;2.37;;;1.30;;
5167;SDS011;2603;48.918;8.980;2023-05-17T03:40:54;8.53;;;1.80;;
5167;SDS011;2603;48.918;8.980;2023-05-17T03:43:22;4.10;;;2.20;;
5167;SDS011;2603;48.918;8.980;2023-05-17T03:45:49;10.83;;;1.90;;
5167;SDS011;2603;48.918;8.980;2023-05-17T03:48:16;3.50;;;1.70;;
5167;SDS011;2603;48.918;8.980;2023-05-17T03:50:43;3.70;;;1.80;;
5167;SDS011;2603;48.918;8.980;2023-05-17T03:53:10;5.90;;;1.93;;
5167;SDS011;2603;48.918;8.980;2023-05-17T03:55:37;7.90;;;2.40;;
5167;SDS011;2603;48.918;8.980;2023-05-17T03:58:04;4.83;;;1.90;;
5167;SDS011;2603;48.918;8.980;2023-05-17T04:00:32;4.07;;;1.50;;
5167;SDS011;2603;48.918;8.980;2023-05-17T04:03:04;7.10;;;1.80;;
5167;SDS011;2603;48.918;8.980;2023-05-17T04:05:31;4.83;;;2.13;;
5167;SDS011;2603;48.918;8.980;2023-05-17T04:07:58;4.37;;;1.33;;
5167;SDS011;2603;48.918;8.980;2023-05-17T04:10:26;8.33;;;2.00;;
5167;SDS011;2603;48.918;8.980;2023-05-17T04:12:52;6.90;;;1.70;;
5167;SDS011;2603;48.918;8.980;2023-05-17T04:15:19;4.23;;;2.13;;
5167;SDS011;2603;48.918;8.980;2023-05-17T04:17:47;5.70;;;1.60;;
5167;SDS011;2603;48.918;8.980;2023-05-17T04:20:14;3.90;;;1.70;;
5167;SDS011;2603;48.918;8.980;2023-05-17T04:22:41;5.50;;;1.73;;
5167;SDS011;2603;48.918;8.980;2023-05-17T04:25:09;8.07;;;2.10;;
5167;SDS011;2603;48.918;8.980;2023-05-17T04:27:36;5.80;;;2.00;;
5167;SDS011;2603;48.918;8.980;2023-05-17T04:30:05;4.33;;;1.80;;
5167;SDS011;2603;48.918;8.980;2023-05-17T04:32:33;3.97;;;1.87;;
5167;SDS011;2603;48.918;8.980;2023-05-17T04:35:02;6.13;;;2.43;;
5167;SDS011;2603;48.918;8.980;2023-05-17T04:37:29;3.23;;;1.40;;
5167;SDS011;2603;48.918;8.980;2023-05-17T04:40:01;5.93;;;1.50;;
5167;SDS011;2603;48.918;8.980;2023-05-17T04:42:30;3.67;;;1.50;;
5167;SDS011;2603;48.918;8.980;2023-05-17T04:44:58;5.10;;;1.90;;
5167;SDS011;2603;48.918;8.980;2023-05-17T04:47:25;8.63;;;2.30;;
5167;SDS011;2603;48.918;8.980;2023-05-17T04:49:52;3.07;;;1.40;;
5167;SDS011;2603;48.918;8.980;2023-05-17T04:52:21;2.80;;;1.47;;
5167;SDS011;2603;48.918;8.980;2023-05-17T04:54:49;4.93;;;1.80;;
5167;SDS011;2603;48.918;8.980;2023-05-17T04:57:16;3.90;;;1.20;;
5167;SDS011;2603;48.918;8.980;2023-05-17T04:59:56;4.23;;;1.47;;
5167;SDS011;2603;48.918;8.980;2023-05-17T05:02:23;3.20;;;1.90;;
5167;SDS011;2603;48.918;8.980;2023-05-17T05:04:49;5.50;;;1.80;;
5167;SDS011;2603;48.918;8.980;2023-05-17T05:07:17;6.97;;;1.87;;
5167;SDS011;2603;48.918;8.980;2023-05-17T05:09:46;2.73;;;1.47;;
5167;SDS011;2603;48.918;8.980;2023-05-17T05:12:14;6.57;;;2.07;;
5167;SDS011;2603;48.918;8.980;2023-05-17T05:14:41;6.30;;;1.87;;
5167;SDS011;2603;48.918;8.980;2023-05-17T05:17:08;6.97;;;1.83;;
5167;SDS011;2603;48.918;8.980;2023-05-17T05:19:36;2.03;;;1.50;;
5167;SDS011;2603;48.918;8.980;2023-05-17T05:22:04;3.10;;;1.33;;
5167;SDS011;2603;48.918;8.980;2023-05-17T05:24:32;6.70;;;2.20;;
5167;SDS011;2603;48.918;8.980;2023-05-17T05:27:00;4.90;;;1.67;;
5167;SDS011;2603;48.918;8.980;2023-05-17T05:29:27;6.20;;;2.87;;
5167;SDS011;2603;48.918;8.980;2023-05-17T05:31:53;8.40;;;1.97;;
5167;SDS011;2603;48.918;8.980;2023-05-17T05:34:20;4.97;;;1.50;;
5167;SDS011;2603;48.918;8.980;2023-05-17T05:36:47;3.10;;;1.60;;
5167;SDS011;2603;48.918;8.980;2023-05-17T05:39:14;4.20;;;2.10;;
5167;SDS011;2603;48.918;8.980;2023-05-17T05:41:42;7.80;;;1.67;;
5167;SDS011;2603;48.918;8.980;2023-05-17T05:44:10;3.97;;;1.30;;
5167;SDS011;2603;48.918;8.980;2023-05-17T05:46:37;7.40;;;1.30;;
5167;SDS011;2603;48.918;8.980;2023-05-17T05:49:04;4.97;;;1.60;;
5167;SDS011;2603;48.918;8.980;2023-05-17T05:51:32;2.80;;;1.33;;
5167;SDS011;2603;48.918;8.980;2023-05-17T05:53:59;8.27;;;1.83;;
5167;SDS011;2603;48.918;8.980;2023-05-17T05:56:26;6.93;;;1.63;;
5167;SDS011;2603;48.918;8.980;2023-05-17T05:58:53;3.90;;;1.67;;
5167;SDS011;2603;48.918;8.980;2023-05-17T06:01:21;6.67;;;2.30;;
5167;SDS011;2603;48.918;8.980;2023-05-17T06:03:49;4.43;;;1.53;;
5167;SDS011;2603;48.918;8.980;2023-05-17T06:06:15;9.07;;;1.90;;
5167;SDS011;2603;48.918;8.980;2023-05-17T06:08:43;3.97;;;1.53;;
5167;SDS011;2603;48.918;8.980;2023-05-17T06:11:11;5.17;;;1.50;;
5167;SDS011;2603;48.918;8.980;2023-05-17T06:13:37;5.20;;;2.03;;
5167;SDS011;2603;48.918;8.980;2023-05-17T06:16:04;3.80;;;1.90;;
5167;SDS011;2603;48.918;8.980;2023-05-17T06:18:32;9.53;;;2.43;;
5167;SDS011;2603;48.918;8.980;2023-05-17T06:20:59;3.63;;;1.70;;
5167;SDS011;2603;48.918;8.980;2023-05-17T06:23:25;15.83;;;2.53;;
5167;SDS011;2603;48.918;8.980;2023-05-17T06:25:52;9.37;;;2.50;;
5167;SDS011;2603;48.918;8.980;2023-05-17T06:28:18;7.87;;;2.27;;
5167;SDS011;2603;48.918;8.980;2023-05-17T06:30:45;4.70;;;1.60;;
5167;SDS011;2603;48.918;8.980;2023-05-17T06:33:11;5.33;;;2.30;;
5167;SDS011;2603;48.918;8.980;2023-05-17T06:35:39;7.90;;;2.23;;
5167;SDS011;2603;48.918;8.980;2023-05-17T06:38:06;4.80;;;1.97;;
5167;SDS011;2603;48.918;8.980;2023-05-17T06:40:33;8.70;;;2.73;;
5167;SDS011;2603;48.918;8.980;2023-05-17T06:42:59;9.60;;;3.00;;
5167;SDS011;2603;48.918;8.980;2023-05-17T06:45:26;6.73;;;2.43;;
5167;SDS011;2603;48.918;8.980;2023-05-17T06:47:53;5.53;;;2.50;;
5167;SDS011;2603;48.918;8.980;2023-05-17T06:50:19;6.37;;;2.40;;
5167;SDS011;2603;48.918;8.980;2023-05-17T06:52:48;12.27;;;2.80;;
5167;SDS011;2603;48.918;8.980;2023-05-17T06:55:14;10.17;;;3.10;;
5167;SDS011;2603;48.918;8.980;2023-05-17T06:57:41;5.27;;;2.47;;
5167;SDS011;2603;48.918;8.980;2023-05-17T07:00:08;4.40;;;2.17;;
5167;SDS011;2603;48.918;8.980;2023-05-17T07:02:37;5.63;;;2.30;;
5167;SDS011;2603;48.918;8.980;2023-05-17T07:05:04;7.27;;;2.70;;
5167;SDS011;2603;48.918;8.980;2023-05-17T07:07:31;9.03;;;2.30;;
5167;SDS011;2603;48.918;8.980;2023-05-17T07:10:00;6.60;;;2.80;;
5167;SDS011;2603;48.918;8.980;2023-05-17T07:12:26;7.57;;;2.30;;
5167;SDS011;2603;48.918;8.980;2023-05-17T07:14:53;4.83;;;2.80;;
5167;SDS011;2603;48.918;8.980;2023-05-17T07:17:19;6.23;;;2.83;;
5167;SDS011;2603;48.918;8.980;2023-05-17T07:19:46;7.07;;;2.30;;
5167;SDS011;2603;48.918;8.980;2023-05-17T07:22:14;8.70;;;2.93;;
5167;SDS011;2603;48.918;8.980;2023-05-17T07:24:42;5.17;;;2.30;;
5167;SDS011;2603;48.918;8.980;2023-05-17T07:27:09;12.70;;;5.70;;
5167;SDS011;2603;48.918;8.980;2023-05-17T07:29:36;4.40;;;2.90;;
5167;SDS011;2603;48.918;8.980;2023-05-17T07:32:03;5.47;;;3.30;;
5167;SDS011;2603;48.918;8.980;2023-05-17T07:34:30;6.37;;;2.87;;
5167;SDS011;2603;48.918;8.980;2023-05-17T07:36:56;9.93;;;2.93;;
5167;SDS011;2603;48.918;8.980;2023-05-17T07:39:23;8.57;;;3.27;;
5167;SDS011;2603;48.918;8.980;2023-05-17T07:41:49;5.03;;;2.80;;
5167;SDS011;2603;48.918;8.980;2023-05-17T07:44:17;8.83;;;3.27;;
5167;SDS011;2603;48.918;8.980;2023-05-17T07:46:45;8.93;;;3.30;;
5167;SDS011;2603;48.918;8.980;2023-05-17T07:49:12;5.70;;;2.77;;
5167;SDS011;2603;48.918;8.980;2023-05-17T07:51:39;12.93;;;2.50;;
5167;SDS011;2603;48.918;8.980;2023-05-17T07:54:05;6.87;;;2.40;;
5167;SDS011;2603;48.918;8.980;2023-05-17T07:56:32;7.83;;;2.80;;
5167;SDS011;2603;48.918;8.980;2023-05-17T07:58:59;8.20;;;2.60;;
5167;SDS011;2603;48.918;8.980;2023-05-17T08:01:27;6.57;;;2.80;;
5167;SDS011;2603;48.918;8.980;2023-05-17T08:03:53;7.40;;;2.83;;
5167;SDS011;2603;48.918;8.980;2023-05-17T08:06:20;6.23;;;2.40;;
5167;SDS011;2603;48.918;8.980;2023-05-17T08:08:46;7.43;;;3.20;;
5167;SDS011;2603;48.918;8.980;2023-05-17T08:11:14;7.27;;;2.70;;
5167;SDS011;2603;48.918;8.980;2023-05-17T08:13:40;9.50;;;2.90;;
5167;SDS011;2603;48.918;8.980;2023-05-17T08:16:08;4.63;;;2.40;;
5167;SDS011;2603;48.918;8.980;2023-05-17T08:18:38;13.90;;;2.77;;
5167;SDS011;2603;48.918;8.980;2023-05-17T08:21:05;7.33;;;2.80;;
5167;SDS011;2603;48.918;8.980;2023-05-17T08:23:31;7.97;;;2.77;;
5167;SDS011;2603;48.918;8.980;2023-05-17T08:25:58;9.03;;;2.33;;
5167;SDS011;2603;48.918;8.980;2023-05-17T08:28:24;8.50;;;3.17;;
5167;SDS011;2603;48.918;8.980;2023-05-17T08:30:51;8.53;;;2.40;;
5167;SDS011;2603;48.918;8.980;2023-05-17T08:33:17;8.87;;;2.60;;
5167;SDS011;2603;48.918;8.980;2023-05-17T08:35:46;8.63;;;3.63;;
5167;SDS011;2603;48.918;8.980;2023-05-17T08:38:13;9.23;;;3.30;;
5167;SDS011;2603;48.918;8.980;2023-05-17T08:40:40;7.73;;;4.03;;
5167;SDS011;2603;48.918;8.980;2023-05-17T08:43:06;7.03;;;2.87;;
5167;SDS011;2603;48.918;8.980;2023-05-17T08:45:34;11.10;;;2.47;;
5167;SDS011;2603;48.918;8.980;2023-05-17T08:48:02;9.20;;;2.60;;
5167;SDS011;2603;48.918;8.980;2023-05-17T08:50:29;6.30;;;2.70;;
5167;SDS011;2603;48.918;8.980;2023-05-17T08:52:57;5.73;;;2.80;;
5167;SDS011;2603;48.918;8.980;2023-05-17T08:55:24;6.13;;;2.23;;
5167;SDS011;2603;48.918;8.980;2023-05-17T08:57:53;6.47;;;2.63;;
5167;SDS011;2603;48.918;8.980;2023-05-17T09:00:20;7.70;;;2.87;;
5167;SDS011;2603;48.918;8.980;2023-05-17T09:02:47;5.60;;;2.47;;
5167;SDS011;2603;48.918;8.980;2023-05-17T09:05:15;9.33;;;3.00;;
5167;SDS011;2603;48.918;8.980;2023-05-17T09:07:42;7.37;;;3.30;;
5167;SDS011;2603;48.918;8.980;2023-05-17T09:10:10;6.60;;;2.67;;
5167;SDS011;2603;48.918;8.980;2023-05-17T09:12:37;6.97;;;2.67;;
5167;SDS011;2603;48.918;8.980;2023-05-17T09:15:11;5.90;;;3.00;;
5167;SDS011;2603;48.918;8.980;2023-05-17T09:17:39;6.07;;;2.90;;
5167;SDS011;2603;48.918;8.980;2023-05-17T09:20:07;7.73;;;3.10;;
5167;SDS011;2603;48.918;8.980;2023-05-17T09:22:35;4.73;;;2.10;;
5167;SDS011;2603;48.918;8.980;2023-05-17T09:25:02;8.27;;;3.37;;
5167;SDS011;2603;48.918;8.980;2023-05-17T09:27:31;6.50;;;3.10;;
5167;SDS011;2603;48.918;8.980;2023-05-17T09:29:57;9.50;;;2.80;;
5167;SDS011;2603;48.918;8.980;2023-05-17T09:32:24;11.37;;;3.20;;
5167;SDS011;2603;48.918;8.980;2023-05-17T09:34:52;5.80;;;3.30;;
5167;SDS011;2603;48.918;8.980;2023-05-17T09:37:20;5.60;;;2.90;;
5167;SDS011;2603;48.918;8.980;2023-05-17T09:39:47;6.77;;;3.40;;
5167;SDS011;2603;48.918;8.980;2023-05-17T09:42:14;8.40;;;3.67;;
5167;SDS011;2603;48.918;8.980;2023-05-17T09:44:47;8.37;;;2.50;;
5167;SDS011;2603;48.918;8.980;2023-05-17T09:47:20;6.73;;;3.10;;
5167;SDS011;2603;48.918;8.980;2023-05-17T09:49:47;6.63;;;2.83;;
5167;SDS011;2603;48.918;8.980;2023-05-17T09:52:16;6.43;;;2.90;;
5167;SDS011;2603;48.918;8.980;2023-05-17T09:54:50;8.07;;;3.53;;
5167;SDS011;2603;48.918;8.980;2023-05-17T09:57:17;6.60;;;3.03;;
5167;SDS011;2603;48.918;8.980;2023-05-17T09:59:44;7.97;;;2.87;;
5167;SDS011;2603;48.918;8.980;2023-05-17T10:02:15;5.53;;;3.23;;
5167;SDS011;2603;48.918;8.980;2023-05-17T10:04:45;6.73;;;3.00;;
5167;SDS011;2603;48.918;8.980;2023-05-17T10:07:12;10.63;;;3.00;;
5167;SDS011;2603;48.918;8.980;2023-05-17T10:09:39;6.07;;;2.80;;
5167;SDS011;2603;48.918;8.980;2023-05-17T10:12:07;9.00;;;3.40;;
5167;SDS011;2603;48.918;8.980;2023-05-17T10:14:35;7.57;;;3.10;;
5167;SDS011;2603;48.918;8.980;2023-05-17T10:17:04;13.23;;;2.63;;
5167;SDS011;2603;48.918;8.980;2023-05-17T10:19:33;6.30;;;3.70;;
5167;SDS011;2603;48.918;8.980;2023-05-17T10:22:00;9.37;;;3.00;;
5167;SDS011;2603;48.918;8.980;2023-05-17T10:24:27;7.97;;;3.40;;
5167;SDS011;2603;48.918;8.980;2023-05-17T10:26:55;6.80;;;3.17;;
5167;SDS011;2603;48.918;8.980;2023-05-17T10:29:22;7.33;;;3.27;;
5167;SDS011;2603;48.918;8.980;2023-05-17T10:31:49;11.63;;;5.13;;
5167;SDS011;2603;48.918;8.980;2023-05-17T10:34:18;11.27;;;2.70;;
5167;SDS011;2603;48.918;8.980;2023-05-17T10:36:45;7.00;;;3.80;;
5167;SDS011;2603;48.918;8.980;2023-05-17T10:39:14;5.57;;;3.37;;
5167;SDS011;2603;48.918;8.980;2023-05-17T10:41:42;5.67;;;3.40;;
5167;SDS011;2603;48.918;8.980;2023-05-17T10:44:11;5.63;;;2.73;;
5167;SDS011;2603;48.918;8.980;2023-05-17T10:46:38;4.80;;;2.87;;
5167;SDS011;2603;48.918;8.980;2023-05-17T10:49:05;4.70;;;2.67;;
5167;SDS011;2603;48.918;8.980;2023-05-17T10:51:35;8.30;;;3.27;;
5167;SDS011;2603;48.918;8.980;2023-05-17T10:54:04;7.20;;;2.63;;
5167;SDS011;2603;48.918;8.980;2023-05-17T10:56:38;8.47;;;2.70;;
5167;SDS011;2603;48.918;8.980;2023-05-17T10:59:13;5.00;;;2.63;;
5167;SDS011;2603;48.918;8.980;2023-05-17T11:01:47;5.70;;;2.37;;
5167;SDS011;2603;48.918;8.980;2023-05-17T11:04:20;8.13;;;2.70;;
5167;SDS011;2603;48.918;8.980;2023-05-17T11:06:49;5.40;;;2.00;;
5167;SDS011;2603;48.918;8.980;2023-05-17T11:09:16;14.23;;;2.30;;
5167;SDS011;2603;48.918;8.980;2023-05-17T11:12:02;5.17;;;1.90;;
5167;SDS011;2603;48.918;8.980;2023-05-17T11:14:41;7.23;;;2.50;;
5167;SDS011;2603;48.918;8.980;2023-05-17T11:17:15;3.60;;;1.80;;
5167;SDS011;2603;48.918;8.980;2023-05-17T11:19:55;6.57;;;2.10;;
5167;SDS011;2603;48.918;8.980;2023-05-17T11:22:33;7.33;;;2.77;;
5167;SDS011;2603;48.918;8.980;2023-05-17T11:25:01;5.10;;;2.17;;
5167;SDS011;2603;48.918;8.980;2023-05-17T11:27:34;7.67;;;3.10;;
5167;SDS011;2603;48.918;8.980;2023-05-17T11:30:06;6.53;;;3.17;;
5167;SDS011;2603;48.918;8.980;2023-05-17T11:32:34;4.50;;;2.40;;
5167;SDS011;2603;48.918;8.980;2023-05-17T11:35:01;5.73;;;2.03;;
5167;SDS011;2603;48.918;8.980;2023-05-17T11:37:30;8.97;;;2.30;;
5167;SDS011;2603;48.918;8.980;2023-05-17T11:40:00;5.60;;;2.43;;
5167;SDS011;2603;48.918;8.980;2023-05-17T11:42:28;5.27;;;2.10;;
5167;SDS011;2603;48.918;8.980;2023-05-17T11:44:55;7.33;;;2.40;;
5167;SDS011;2603;48.918;8.980;2023-05-17T11:47:22;7.67;;;3.57;;
5167;SDS011;2603;48.918;8.980;2023-05-17T11:49:48;7.93;;;4.00;;
5167;SDS011;2603;48.918;8.980;2023-05-17T11:52:16;7.90;;;3.17;;
5167;SDS011;2603;48.918;8.980;2023-05-17T11:54:45;5.70;;;2.50;;
5167;SDS011;2603;48.918;8.980;2023-05-17T11:57:12;22.83;;;4.57;;
5167;SDS011;2603;48.918;8.980;2023-05-17T11:59:40;6.90;;;2.83;;
5167;SDS011;2603;48.918;8.980;2023-05-17T12:02:08;6.17;;;2.97;;
5167;SDS011;2603;48.918;8.980;2023-05-17T12:04:35;7.03;;;2.50;;
5167;SDS011;2603;48.918;8.980;2023-05-17T12:07:02;8.40;;;3.40;;
5167;SDS011;2603;48.918;8.980;2023-05-17T12:09:29;7.80;;;2.90;;
5167;SDS011;2603;48.918;8.980;2023-05-17T12:11:57;5.77;;;2.10;;
5167;SDS011;2603;48.918;8.980;2023-05-17T12:14:28;7.70;;;2.90;;
5167;SDS011;2603;48.918;8.980;2023-05-17T12:16:56;5.20;;;2.47;;
5167;SDS011;2603;48.918;8.980;2023-05-17T12:19:24;7.13;;;3.07;;
5167;SDS011;2603;48.918;8.980;2023-05-17T12:21:53;9.77;;;2.53;;
5167;SDS011;2603;48.918;8.980;2023-05-17T12:24:35;6.73;;;2.50;;
5167;SDS011;2603;48.918;8.980;2023-05-17T12:27:04;7.43;;;2.30;;
5167;SDS011;2603;48.918;8.980;2023-05-17T12:29:31;6.40;;;2.90;;
5167;SDS011;2603;48.918;8.980;2023-05-17T12:31:58;6.63;;;2.40;;
5167;SDS011;2603;48.918;8.980;2023-05-17T12:34:25;4.53;;;2.30;;
5167;SDS011;2603;48.918;8.980;2023-05-17T12:36:52;7.87;;;3.20;;
5167;SDS011;2603;48.918;8.980;2023-05-17T12:39:19;6.90;;;2.70;;
5167;SDS011;2603;48.918;8.980;2023-05-17T12:41:47;5.27;;;2.80;;
5167;SDS011;2603;48.918;8.980;2023-05-17T12:44:16;7.93;;;2.63;;
5167;SDS011;2603;48.918;8.980;2023-05-17T12:46:43;6.63;;;2.53;;
5167;SDS011;2603;48.918;8.980;2023-05-17T12:49:12;6.00;;;2.67;;
5167;SDS011;2603;48.918;8.980;2023-05-17T12:51:38;5.23;;;2.70;;
5167;SDS011;2603;48.918;8.980;2023-05-17T12:54:06;9.70;;;2.37;;
5167;SDS011;2603;48.918;8.980;2023-05-17T12:56:32;6.50;;;2.10;;
5167;SDS011;2603;48.918;8.980;2023-05-17T12:59:02;5.37;;;2.67;;
5167;SDS011;2603;48.918;8.980;2023-05-17T13:01:33;7.20;;;3.17;;
5167;SDS011;2603;48.918;8.980;2023-05-17T13:04:00;6.27;;;2.70;;
5167;SDS011;2603;48.918;8.980;2023-05-17T13:06:26;7.13;;;2.97;;
5167;SDS011;2603;48.918;8.980;2023-05-17T13:08:59;6.53;;;2.77;;
5167;SDS011;2603;48.918;8.980;2023-05-17T13:11:26;4.80;;;2.70;;
5167;SDS011;2603;48.918;8.980;2023-05-17T13:13:52;5.87;;;1.90;;
5167;SDS011;2603;48.918;8.980;2023-05-17T13:16:26;5.33;;;2.73;;
5167;SDS011;2603;48.918;8.980;2023-05-17T13:18:55;9.23;;;2.97;;
5167;SDS011;2603;48.918;8.980;2023-05-17T13:21:21;10.40;;;3.70;;
5167;SDS011;2603;48.918;8.980;2023-05-17T13:23:49;11.43;;;3.53;;
5167;SDS011;2603;48.918;8.980;2023-05-17T13:26:16;9.97;;;2.40;;
5167;SDS011;2603;48.918;8.980;2023-05-17T13:28:43;6.03;;;3.07;;
5167;SDS011;2603;48.918;8.980;2023-05-17T13:31:10;8.30;;;3.13;;
5167;SDS011;2603;48.918;8.980;2023-05-17T13:33:36;9.50;;;3.37;;
5167;SDS011;2603;48.918;8.980;2023-05-17T13:36:05;3.90;;;2.43;;
5167;SDS011;2603;48.918;8.980;2023-05-17T13:38:32;5.83;;;2.87;;
5167;SDS011;2603;48.918;8.980;2023-05-17T13:40:58;7.00;;;2.60;;
5167;SDS011;2603;48.918;8.980;2023-05-17T13:43:25;5.97;;;2.90;;
5167;SDS011;2603;48.918;8.980;2023-05-17T13:45:51;6.23;;;2.53;;
5167;SDS011;2603;48.918;8.980;2023-05-17T13:48:23;9.33;;;2.80;;
5167;SDS011;2603;48.918;8.980;2023-05-17T13:50:49;6.53;;;3.03;;
5167;SDS011;2603;48.918;8.980;2023-05-17T13:53:17;6.57;;;3.27;;
5167;SDS011;2603;48.918;8.980;2023-05-17T13:55:44;7.80;;;3.20;;
5167;SDS011;2603;48.918;8.980;2023-05-17T13:58:10;5.00;;;2.73;;
5167;SDS011;2603;48.918;8.980;2023-05-17T14:00:37;5.53;;;2.53;;
5167;SDS011;2603;48.918;8.980;2023-05-17T14:03:06;4.67;;;2.70;;
5167;SDS011;2603;48.918;8.980;2023-05-17T14:05:33;10.33;;;2.60;;
5167;SDS011;2603;48.918;8.980;2023-05-17T14:08:00;5.03;;;2.23;;
5167;SDS011;2603;48.918;8.980;2023-05-17T14:10:28;6.73;;;3.27;;
5167;SDS011;2603;48.918;8.980;2023-05-17T14:12:55;10.87;;;2.93;;
5167;SDS011;2603;48.918;8.980;2023-05-17T14:15:22;13.87;;;3.63;;
5167;SDS011;2603;48.918;8.980;2023-05-17T14:17:49;10.13;;;3.50;;
5167;SDS011;2603;48.918;8.980;2023-05-17T14:20:16;6.53;;;3.00;;
5167;SDS011;2603;48.918;8.980;2023-05-17T14:22:42;7.77;;;3.20;;
5167;SDS011;2603;48.918;8.980;2023-05-17T14:25:09;6.40;;;2.73;;
5167;SDS011;2603;48.918;8.980;2023-05-17T14:27:38;7.43;;;3.13;;
5167;SDS011;2603;48.918;8.980;2023-05-17T14:30:05;6.23;;;2.97;;
5167;SDS011;2603;48.918;8.980;2023-05-17T14:32:32;3.53;;;2.23;;
5167;SDS011;2603;48.918;8.980;2023-05-17T14:34:59;4.67;;;3.07;;
5167;SDS011;2603;48.918;8.980;2023-05-17T14:37:25;4.53;;;2.60;;
5167;SDS011;2603;48.918;8.980;2023-05-17T14:39:52;12.83;;;3.00;;
5167;SDS011;2603;48.918;8.980;2023-05-17T14:42:19;7.40;;;2.47;;
5167;SDS011;2603;48.918;8.980;2023-05-17T14:44:47;9.00;;;3.03;;
5167;SDS011;2603;48.918;8.980;2023-05-17T14:47:13;6.73;;;2.77;;
5167;SDS011;2603;48.918;8.980;2023-05-17T14:49:40;5.30;;;2.50;;
5167;SDS011;2603;48.918;8.980;2023-05-17T14:52:07;5.90;;;2.63;;
5167;SDS011;2603;48.918;8.980;2023-05-17T14:54:34;5.67;;;2.40;;
5167;SDS011;2603;48.918;8.980;2023-05-17T14:57:00;9.10;;;3.40;;
5167;SDS011;2603;48.918;8.980;2023-05-17T14:59:27;7.13;;;3.17;;
5167;SDS011;2603;48.918;8.980;2023-05-17T15:01:56;5.80;;;3.00;;
5167;SDS011;2603;48.918;8.980;2023-05-17T15:04:22;8.07;;;3.23;;
5167;SDS011;2603;48.918;8.980;2023-05-17T15:06:49;5.33;;;2.97;;
5167;SDS011;2603;48.918;8.980;2023-05-17T15:09:16;7.70;;;3.10;;
5167;SDS011;2603;48.918;8.980;2023-05-17T15:11:43;7.20;;;2.40;;
5167;SDS011;2603;48.918;8.980;2023-05-17T15:14:10;5.97;;;3.17;;
5167;SDS011;2603;48.918;8.980;2023-05-17T15:16:37;6.13;;;3.17;;
5167;SDS011;2603;48.918;8.980;2023-05-17T15:19:07;5.07;;;2.90;;